Flight Track Log - Related Links

Times and Time Zones

All times are in EDT time to prevent confusion due to time zone crossing. See the N782JC flight status page for this flight to view local times or setup timezone preferences in your user account.

Time Position Orientation Groundspeed Altitude Reporting Facility
EDT Latitude Longitude Course Direction KTS MPH feet Rate Location/Type
Thu 09:55:18 AM 33.6333 -111.9000 320° Northwest 112 129 2,000  Level Phoenix TRACON
Thu 09:56:18 AM 33.6500 -111.9167 320° Northwest 133 153 3,500 1,327 Climbing Phoenix TRACON
Thu 09:57:11 AM 33.6650 -111.9400 308° West 131 151 4,500 1,211 Climbing Albuquerque Center
Thu 09:58:12 AM 33.6958 -111.9169 32° Northeast 132 152 5,800 1,463 Climbing Albuquerque Center
Thu 09:59:14 AM 33.7336 -111.8878 33° Northeast 139 160 7,500 1,512 Climbing Albuquerque Center
Thu 10:00:15 AM 33.7686 -111.8739 18° North 133 153 8,900 1,377 Climbing Albuquerque Center
Thu 10:01:16 AM 33.8014 -111.8564 24° Northeast 130 150 10,300 1,220 Climbing Albuquerque Center
Thu 10:02:18 AM 33.8400 -111.8358 24° Northeast 149 171 11,400 1,171 Climbing Albuquerque Center
Thu 10:03:19 AM 33.8817 -111.8161 21° North 159 183 12,700 885 Climbing Albuquerque Center
Thu 10:04:20 AM 33.9281 -111.7922 23° Northeast 182 209 13,200 1,073 Climbing Albuquerque Center
Thu 10:05:22 AM 33.9833 -111.7650 22° Northeast 183 211 14,900 1,317 Climbing Albuquerque Center
Thu 10:06:23 AM 34.0264 -111.7422 24° Northeast 175 201 15,900 1,024 Climbing Albuquerque Center
Thu 10:07:25 AM 34.0733 -111.7164 25° Northeast 183 211 17,000 878 Climbing Albuquerque Center
Thu 10:08:26 AM 34.1131 -111.6733 42° Northeast 193 222 17,700 780 Climbing Albuquerque Center
Thu 10:09:28 AM 34.1575 -111.6314 38° Northeast 200 230 18,600 878 Climbing Albuquerque Center
Thu 10:10:29 AM 34.2011 -111.5928 36° Northeast 193 222 19,500 829 Climbing Albuquerque Center
Thu 10:11:31 AM 34.2442 -111.5544 36° Northeast 194 223 20,300 774 Climbing Albuquerque Center
Thu 10:12:33 AM 34.2975 -111.5064 37° Northeast 197 227 21,100 683 Climbing Albuquerque Center
Thu 10:13:34 AM 34.3431 -111.4656 37° Northeast 202 232 21,700 585 Climbing Albuquerque Center
Thu 10:14:36 AM 34.3875 -111.4219 39° Northeast 204 235 22,300 537 Climbing Albuquerque Center
Thu 10:15:37 AM 34.4347 -111.3786 37° Northeast 211 243 22,800 488 Climbing Albuquerque Center
Thu 10:16:39 AM 34.4831 -111.3361 36° Northeast 213 245 23,300 484 Climbing Albuquerque Center
Thu 10:17:41 AM 34.5300 -111.2897 39° Northeast 216 249 23,800 537 Climbing Albuquerque Center
Thu 10:18:42 AM 34.5786 -111.2458 37° Northeast 218 251 24,400 537 Climbing Albuquerque Center
Thu 10:19:44 AM 34.6389 -111.1917 36° Northeast 222 255 24,900 290 Climbing Albuquerque Center
Thu 10:20:46 AM 34.6889 -111.1456 37° Northeast 225 259 25,000 48 Climbing Albuquerque Center
Thu 10:21:48 AM 34.7422 -111.0942 38° Northeast 237 273 25,000  Level Albuquerque Center
Thu 10:22:49 AM 34.7986 -111.0411 38° Northeast 250 288 25,000  Level Albuquerque Center
Thu 10:23:51 AM 34.8544 -110.9875 38° Northeast 255 293 25,000  Level Albuquerque Center
Thu 10:24:53 AM 34.9103 -110.9336 38° Northeast 256 295 25,000  Level Albuquerque Center
Thu 10:25:55 AM 34.9669 -110.8797 38° Northeast 258 297 25,000  Level Albuquerque Center
Thu 10:26:57 AM 35.0350 -110.8164 37° Northeast 258 297 25,000  Level Albuquerque Center
Thu 10:27:58 AM 35.0886 -110.7544 43° Northeast 259 298 25,000  Level Albuquerque Center
Thu 10:29:00 AM 35.1294 -110.6839 55° Northeast 263 303 25,000  Level Albuquerque Center
Thu 10:30:02 AM 35.1822 -110.6061 50° Northeast 265 305 25,000  Level Albuquerque Center
Thu 10:31:04 AM 35.2236 -110.5397 53° Northeast 259 298 25,000  Level Albuquerque Center
Thu 10:32:06 AM 35.2736 -110.4625 52° Northeast 259 298 25,000  Level Albuquerque Center
Thu 10:33:08 AM 35.3156 -110.3978 52° Northeast 256 295 25,000  Level Albuquerque Center
Thu 10:34:10 AM 35.3644 -110.3217 52° Northeast 255 293 25,000  Level Albuquerque Center
Thu 10:35:12 AM 35.4075 -110.2553 51° Northeast 258 297 25,000  Level Albuquerque Center
Thu 10:36:14 AM 35.4503 -110.1894 51° Northeast 258 297 25,000  Level Albuquerque Center
Thu 10:37:16 AM 35.4986 -110.1119 53° Northeast 256 295 25,000  Level Albuquerque Center
Thu 10:38:18 AM 35.5406 -110.0467 52° Northeast 255 293 25,000  Level Albuquerque Center
Thu 10:39:20 AM 35.5889 -109.9711 52° Northeast 253 291 25,000  Level Albuquerque Center
Thu 10:40:22 AM 35.6300 -109.9058 52° Northeast 253 291 25,000  Level Albuquerque Center
Thu 10:41:24 AM 35.6783 -109.8300 52° Northeast 252 290 25,000  Level Albuquerque Center
Thu 10:42:26 AM 35.7203 -109.7644 52° Northeast 253 291 25,000  Level Albuquerque Center
Thu 10:43:28 AM 35.7689 -109.6889 52° Northeast 253 291 25,000  Level Albuquerque Center
Thu 10:44:29 AM 35.8108 -109.6231 52° Northeast 253 291 25,000  Level Albuquerque Center
Thu 10:45:31 AM 35.8583 -109.5469 52° Northeast 252 290 25,000  Level Albuquerque Center
Thu 10:46:33 AM 35.8989 -109.4831 52° Northeast 250 288 25,000  Level Albuquerque Center
Thu 10:47:35 AM 35.9461 -109.4078 52° Northeast 248 285 25,000  Level Albuquerque Center
Thu 10:48:37 AM 35.9869 -109.3414 53° Northeast 251 289 25,000  Level Albuquerque Center
Thu 10:49:39 AM 36.0278 -109.2758 52° Northeast 251 289 25,000  Level Albuquerque Center
Thu 10:50:42 AM 36.0750 -109.1997 52° Northeast 250 288 25,000  Level Albuquerque Center
Thu 10:51:44 AM 36.1150 -109.1372 52° Northeast 248 285 25,000  Level Albuquerque Center
Thu 10:52:46 AM 36.1567 -109.0681 53° Northeast 249 287 25,000  Level Albuquerque Center
Thu 10:53:48 AM 36.2042 -108.9925 52° Northeast 249 287 25,000  Level Albuquerque Center
Thu 10:55:01 AM 36.2597 -108.9042 52° Northeast 252 290 25,000  Level Denver Center
Thu 10:56:03 AM 36.3003 -108.8381 53° Northeast 251 289 25,000  Level Denver Center
Thu 10:57:05 AM 36.3475 -108.7614 53° Northeast 250 288 25,000  Level Denver Center
Thu 10:58:08 AM 36.3867 -108.6961 53° Northeast 247 284 25,000  Level Denver Center
Thu 10:59:10 AM 36.4336 -108.6203 52° Northeast 247 284 25,000  Level Denver Center
Thu 11:00:12 AM 36.4728 -108.5561 53° Northeast 244 281 25,000  Level Denver Center
Thu 11:01:14 AM 36.5117 -108.4919 53° Northeast 243 280 25,000  Level Denver Center
Thu 11:02:16 AM 36.5578 -108.4153 53° Northeast 246 283 25,000  Level Denver Center
Thu 11:03:18 AM 36.5969 -108.3511 53° Northeast 244 281 25,000  Level Denver Center
Thu 11:04:20 AM 36.6436 -108.2756 52° Northeast 245 282 25,000  Level Denver Center
Thu 11:05:21 AM 36.6758 -108.2211 54° Northeast 246 283 25,000  Level Denver Center
Thu 11:06:24 AM 36.7261 -108.1361 54° Northeast 240 276 25,000  Level Denver Center
Thu 11:07:26 AM 36.7619 -108.0661 57° Northeast 248 285 25,000  Level Denver Center
Thu 11:08:28 AM 36.7969 -107.9806 63° Northeast 248 285 25,000  Level Denver Center
Thu 11:09:30 AM 36.8281 -107.9089 62° Northeast 246 283 25,000  Level Denver Center
Thu 11:10:32 AM 36.8636 -107.8219 63° Northeast 251 289 25,000  Level Denver Center
Thu 11:11:34 AM 36.8944 -107.7483 62° Northeast 250 288 25,000  Level Denver Center
Thu 11:12:36 AM 36.9242 -107.6767 63° Northeast 245 282 25,000  Level Denver Center
Thu 11:13:50 AM 36.9586 -107.5939 62° Northeast 241 277 25,000  Level Denver Center
Thu 11:14:52 AM 36.9972 -107.4986 63° Northeast 240 276 25,000  Level Denver Center
Thu 11:15:55 AM 37.0267 -107.4275 63° Northeast 240 276 25,000  Level Denver Center
Thu 11:16:57 AM 37.0614 -107.3422 63° Northeast 247 284 25,000  Level Denver Center
Thu 11:17:59 AM 37.0908 -107.2686 63° Northeast 248 285 25,000  Level Denver Center
Thu 11:19:01 AM 37.1264 -107.1839 62° Northeast 247 284 25,000  Level Denver Center
Thu 11:20:03 AM 37.1567 -107.1094 63° Northeast 248 285 25,000  Level Denver Center
Thu 11:21:05 AM 37.1869 -107.0356 63° Northeast 250 288 25,000  Level Denver Center
Thu 11:22:07 AM 37.2206 -106.9486 64° Northeast 247 284 25,000  Level Denver Center
Thu 11:23:09 AM 37.2519 -106.8772 61° Northeast 245 282 25,000  Level Denver Center
Thu 11:24:11 AM 37.2861 -106.7917 63° Northeast 245 282 25,000  Level Denver Center
Thu 11:25:13 AM 37.3133 -106.7189 65° Northeast 242 278 25,000  Level Denver Center
Thu 11:26:15 AM 37.3483 -106.6347 62° Northeast 243 280 25,000  Level Denver Center
Thu 11:27:17 AM 37.3772 -106.5617 64° Northeast 244 281 25,000  Level Denver Center
Thu 11:28:19 AM 37.4172 -106.4853 57° Northeast 237 273 25,000  Level Denver Center
Thu 11:29:21 AM 37.4600 -106.4339 44° Northeast 225 259 25,000  Level Denver Center
Thu 11:30:23 AM 37.5158 -106.3775 39° Northeast 227 261 25,000  Level Denver Center
Thu 11:31:25 AM 37.5589 -106.3244 44° Northeast 227 261 25,000  Level Denver Center
Thu 11:32:27 AM 37.6114 -106.2633 43° Northeast 229 264 25,000  Level Denver Center
Thu 11:33:29 AM 37.6547 -106.2108 44° Northeast 227 261 25,000  Level Denver Center
Thu 11:34:31 AM 37.7000 -106.1592 42° Northeast 226 260 25,000  Level Denver Center
Thu 11:35:33 AM 37.7539 -106.0978 42° Northeast 232 267 25,000  Level Denver Center
Thu 11:36:35 AM 37.7975 -106.0431 45° Northeast 230 265 25,000  Level Denver Center
Thu 11:37:37 AM 37.8517 -105.9817 42° Northeast 232 267 25,000  Level Denver Center
Thu 11:38:39 AM 37.8883 -105.9378 43° Northeast 230 265 25,000  Level Denver Center
Thu 11:39:42 AM 37.9481 -105.8678 43° Northeast 229 264 25,000  Level Denver Center
Thu 11:40:44 AM 37.9925 -105.8158 43° Northeast 227 261 25,000  Level Denver Center
Thu 11:41:46 AM 38.0428 -105.7542 44° Northeast 225 259 25,000  Level Denver Center
Thu 11:42:48 AM 38.0886 -105.7019 42° Northeast 229 264 25,000  Level Denver Center
Thu 11:43:50 AM 38.1411 -105.6386 43° Northeast 232 267 25,000  Level Denver Center
Thu 11:44:52 AM 38.1864 -105.5850 43° Northeast 232 267 25,000  Level Denver Center
Thu 11:45:54 AM 38.2397 -105.5219 43° Northeast 233 268 25,000  Level Denver Center
Thu 11:46:56 AM 38.2831 -105.4683 44° Northeast 230 265 25,000  Level Denver Center
Thu 11:48:10 AM 38.3350 -105.4053 44° Northeast 233 268 25,000  Level Denver Center
Thu 11:49:13 AM 38.3550 -105.3108 75° East 272 313 25,000  Level Denver Center
Thu 11:50:15 AM 38.3467 -105.2008 95° East 281 323 25,000  Level Denver Center
Thu 11:51:17 AM 38.3406 -105.1092 95° East 275 316 25,000  Level Denver Center
Thu 11:52:19 AM 38.3336 -105.0033 95° East 271 312 25,000  Level Denver Center
Thu 11:53:21 AM 38.3278 -104.9111 95° East 272 313 25,000  Level Denver Center
Thu 11:54:35 AM 38.3192 -104.7875 95° East 274 315 25,000  Level Denver Center
Thu 11:55:37 AM 38.3264 -104.7000 84° East 279 321 25,000  Level Denver Center
Thu 11:56:39 AM 38.3653 -104.6206 58° Northeast 243 280 25,000  Level Denver Center
Thu 11:57:41 AM 38.3983 -104.5481 60° Northeast 244 281 25,000  Level Denver Center
Thu 11:58:43 AM 38.4361 -104.4644 60° Northeast 244 281 25,000  Level Denver Center
Thu 11:59:45 AM 38.4689 -104.3919 60° Northeast 245 282 25,000  Level Denver Center
Thu 12:00:47 PM 38.5067 -104.3103 59° Northeast 241 277 25,000  Level Denver Center
Thu 12:01:50 PM 38.5392 -104.2397 59° Northeast 240 276 25,000  Level Denver Center
Thu 12:02:52 PM 38.5764 -104.1572 60° Northeast 240 276 25,000  Level Denver Center
Thu 12:03:54 PM 38.6089 -104.0869 59° Northeast 240 276 25,000  Level Denver Center
Thu 12:04:56 PM 38.6417 -104.0144 60° Northeast 244 281 25,000  Level Denver Center
Thu 12:05:58 PM 38.6783 -103.9306 61° Northeast 242 278 25,000  Level Denver Center
Thu 12:07:00 PM 38.7119 -103.8575 59° Northeast 248 285 25,000  Level Denver Center
Thu 12:08:02 PM 38.7483 -103.7756 60° Northeast 238 274 25,000  Level Denver Center
Thu 12:09:04 PM 38.7814 -103.7033 60° Northeast 241 277 25,000  Level Denver Center
Thu 12:10:06 PM 38.8178 -103.6183 61° Northeast 243 280 25,000  Level Denver Center
Thu 12:11:08 PM 38.8431 -103.5428 67° East 242 278 25,000  Level Denver Center
Thu 12:12:10 PM 38.8733 -103.4514 67° East 246 283 25,000  Level Denver Center
Thu 12:13:12 PM 38.8997 -103.3700 67° East 246 283 25,000  Level Denver Center
Thu 12:14:14 PM 38.9258 -103.2881 68° East 247 284 25,000  Level Denver Center
Thu 12:15:16 PM 38.9517 -103.2072 68° East 245 282 25,000  Level Denver Center
Thu 12:16:18 PM 38.9781 -103.1244 68° East 247 284 25,000  Level Denver Center
Thu 12:17:20 PM 39.0042 -103.0447 67° East 243 280 25,000  Level Denver Center
Thu 12:18:22 PM 39.0294 -102.9633 68° East 243 280 25,000  Level Denver Center
Thu 12:19:25 PM 39.0608 -102.8694 67° East 243 280 25,000  Level Denver Center
Thu 12:20:27 PM 39.0861 -102.7883 68° East 243 280 25,000  Level Denver Center
Thu 12:21:29 PM 39.1117 -102.7089 67° East 241 277 25,000  Level Denver Center
Thu 12:22:31 PM 39.1356 -102.6325 68° East 241 277 25,000  Level Denver Center
Thu 12:23:33 PM 39.1644 -102.5406 68° East 246 283 25,000  Level Denver Center
Thu 12:24:35 PM 39.1897 -102.4625 67° East 247 284 25,000  Level Denver Center
Thu 12:25:37 PM 39.2178 -102.3708 68° East 246 283 25,000  Level Denver Center
Thu 12:26:39 PM 39.2425 -102.2928 68° East 246 283 25,000  Level Denver Center
Thu 12:27:41 PM 39.2708 -102.2000 68° East 249 287 25,000  Level Denver Center
Thu 12:28:43 PM 39.2958 -102.1206 68° East 249 287 25,000  Level Denver Center
Thu 12:29:45 PM 39.3256 -102.0267 68° East 254 292 25,000  Level Denver Center
Thu 12:30:47 PM 39.3492 -101.9517 68° East 250 288 25,000  Level Denver Center
Thu 12:31:49 PM 39.3772 -101.8575 69° East 253 291 25,000  Level Denver Center
Thu 12:32:51 PM 39.4022 -101.7772 68° East 251 289 25,000  Level Denver Center
Thu 12:33:53 PM 39.4319 -101.6836 68° East 252 290 25,000  Level Denver Center
Thu 12:34:55 PM 39.4553 -101.6017 70° East 254 292 25,000  Level Denver Center
Thu 12:35:58 PM 39.4842 -101.5097 68° East 248 285 25,000  Level Denver Center
Thu 12:36:59 PM 39.5081 -101.4283 69° East 253 291 25,000  Level Denver Center
Thu 12:38:01 PM 39.5361 -101.3350 69° East 251 289 25,000  Level Denver Center
Thu 12:39:04 PM 39.5608 -101.2544 68° East 253 291 25,000  Level Denver Center
Thu 12:40:06 PM 39.5894 -101.1608 68° East 250 288 25,000  Level Denver Center
Thu 12:41:08 PM 39.6128 -101.0808 69° East 249 287 25,000  Level Denver Center
Thu 12:42:10 PM 39.6411 -100.9878 68° East 247 284 25,000  Level Denver Center
Thu 12:43:12 PM 39.6653 -100.9064 69° East 252 290 25,000  Level Denver Center
Thu 12:44:14 PM 39.6931 -100.8117 69° East 253 291 25,000  Level Denver Center
Thu 12:45:16 PM 39.7175 -100.7308 69° East 252 290 25,000  Level Denver Center
Thu 12:46:18 PM 39.7442 -100.6356 70° East 253 291 25,000  Level Denver Center
Thu 12:47:20 PM 39.7686 -100.5553 68° East 250 288 25,000  Level Denver Center
Thu 12:48:22 PM 39.7964 -100.4611 69° East 251 289 25,000  Level Denver Center
Thu 12:49:24 PM 39.8192 -100.3822 69° East 248 285 25,000  Level Denver Center
Thu 12:50:26 PM 39.8467 -100.2894 69° East 246 283 25,000  Level Denver Center
Thu 12:51:28 PM 39.8692 -100.2100 70° East 244 281 25,000  Level Denver Center
Thu 12:52:30 PM 39.8922 -100.1289 70° East 248 285 25,000  Level Denver Center
Thu 12:53:32 PM 39.9200 -100.0358 69° East 248 285 25,000  Level Denver Center
Thu 12:54:34 PM 39.9425 -99.9558 70° East 247 284 25,000  Level Denver Center
Thu 12:55:36 PM 39.9694 -99.8628 69° East 247 284 25,000  Level Denver Center
Thu 12:56:38 PM 39.9922 -99.7817 70° East 248 285 25,000  Level Denver Center
Thu 12:57:40 PM 40.0189 -99.6869 70° East 250 288 25,000  Level Denver Center
Thu 12:58:42 PM 40.0417 -99.6069 70° East 247 284 25,000  Level Denver Center
Thu 12:59:44 PM 40.0681 -99.5122 70° East 249 287 25,000  Level Denver Center
Thu 01:00:47 PM 40.0914 -99.4314 69° East 250 288 25,000  Level Denver Center
Thu 01:01:49 PM 40.1181 -99.3361 70° East 250 288 25,000  Level Denver Center
Thu 01:02:51 PM 40.1400 -99.2544 71° East 250 288 25,000  Level Denver Center
Thu 01:03:53 PM 40.1672 -99.1589 70° East 251 289 25,000  Level Denver Center
Thu 01:04:55 PM 40.1897 -99.0778 70° East 249 287 25,000  Level Denver Center
Thu 01:05:57 PM 40.2150 -98.9828 71° East 247 284 25,000  Level Denver Center
Thu 01:06:59 PM 40.2386 -98.9017 69° East 250 288 25,000  Level Denver Center
Thu 01:07:44 PM 40.2567 -98.8408 69° East 248 285 25,000  Level Minneapolis Center
Thu 01:08:46 PM 40.2786 -98.7544 72° East 249 287 25,000  Level Minneapolis Center
Thu 01:09:48 PM 40.3014 -98.6692 71° East 249 287 25,000  Level Minneapolis Center
Thu 01:10:50 PM 40.3289 -98.5653 71° East 250 288 25,000  Level Minneapolis Center
Thu 01:11:52 PM 40.3522 -98.4792 70° East 250 288 25,000  Level Minneapolis Center
Thu 01:12:53 PM 40.3756 -98.3931 70° East 251 289 25,000  Level Minneapolis Center
Thu 01:13:55 PM 40.3992 -98.3067 70° East 252 290 25,000  Level Minneapolis Center
Thu 01:15:09 PM 40.4231 -98.2208 70° East 251 289 25,000  Level Minneapolis Center
Thu 01:16:11 PM 40.4497 -98.1181 71° East 250 288 25,000  Level Minneapolis Center
Thu 01:17:13 PM 40.4739 -98.0322 70° East 250 288 25,000  Level Minneapolis Center
Thu 01:18:15 PM 40.5019 -97.9300 70° East 249 287 25,000  Level Minneapolis Center
Thu 01:19:17 PM 40.5247 -97.8433 71° East 250 288 25,000  Level Minneapolis Center
Thu 01:20:18 PM 40.5436 -97.7739 70° East 251 289 25,000  Level Minneapolis Center
Thu 01:21:20 PM 40.5692 -97.6692 72° East 251 289 25,000  Level Minneapolis Center
Thu 01:22:22 PM 40.5919 -97.5808 71° East 253 291 25,000  Level Minneapolis Center
Thu 01:23:24 PM 40.6144 -97.4936 71° East 253 291 25,000  Level Minneapolis Center
Thu 01:24:26 PM 40.6378 -97.4064 71° East 253 291 25,000  Level Minneapolis Center
Thu 01:25:27 PM 40.6658 -97.3014 71° East 253 291 25,000  Level Minneapolis Center
Thu 01:26:29 PM 40.6881 -97.2128 72° East 254 292 25,000  Level Minneapolis Center
Thu 01:27:31 PM 40.7106 -97.1236 72° East 255 293 25,000  Level Minneapolis Center
Thu 01:28:33 PM 40.7339 -97.0361 71° East 255 293 25,000  Level Minneapolis Center
Thu 01:29:35 PM 40.7558 -96.9461 72° East 256 295 25,000  Level Minneapolis Center
Thu 01:30:37 PM 40.7786 -96.8572 71° East 256 295 25,000  Level Minneapolis Center
Thu 01:31:38 PM 40.8017 -96.7683 71° East 256 295 25,000  Level Minneapolis Center
Thu 01:32:40 PM 40.8275 -96.6614 72° East 256 295 25,000  Level Minneapolis Center
Thu 01:33:42 PM 40.8497 -96.5703 72° East 259 298 25,000  Level Minneapolis Center
Thu 01:34:44 PM 40.8725 -96.4789 72° East 261 300 25,000  Level Minneapolis Center
Thu 01:35:46 PM 40.8947 -96.3903 72° East 257 296 25,000  Level Minneapolis Center
Thu 01:36:47 PM 40.9175 -96.2975 72° East 263 303 25,000  Level Minneapolis Center
Thu 01:37:49 PM 40.9406 -96.2069 71° East 261 300 25,000  Level Minneapolis Center
Thu 01:38:51 PM 40.9678 -96.0978 72° East 262 302 25,000  Level Minneapolis Center
Thu 01:39:53 PM 40.9892 -96.0061 73° East 263 303 25,000  Level Minneapolis Center
Thu 01:40:55 PM 41.0119 -95.9144 72° East 263 303 25,000 -48 Level Minneapolis Center
Thu 01:41:57 PM 41.0336 -95.8225 73° East 263 303 24,900 -339 Descending Minneapolis Center
Thu 01:42:59 PM 41.0567 -95.7272 72° East 270 311 24,300 -484 Descending Minneapolis Center
Thu 01:44:01 PM 41.0808 -95.6303 72° East 277 319 23,900 -390 Descending Minneapolis Center
Thu 01:45:02 PM 41.1078 -95.5175 72° East 271 312 23,500 -390 Descending Minneapolis Center
Thu 01:46:04 PM 41.1294 -95.4242 73° East 268 308 23,100 -435 Descending Minneapolis Center
Thu 01:47:06 PM 41.1528 -95.3303 72° East 269 310 22,600 -581 Descending Minneapolis Center
Thu 01:48:08 PM 41.1750 -95.2350 73° East 270 311 21,900 -919 Descending Minneapolis Center
Thu 01:49:10 PM 41.1981 -95.1347 73° East 279 321 20,700 -1,113 Descending Minneapolis Center
Thu 01:50:12 PM 41.2217 -95.0331 73° East 287 330 19,600 -1,171 Descending Minneapolis Center
Thu 01:51:13 PM 41.2494 -94.9144 73° East 283 326 18,300 -1,073 Descending Minneapolis Center
Thu 01:52:15 PM 41.2728 -94.8136 73° East 284 327 17,400 -1,016 Descending Minneapolis Center
Thu 01:53:17 PM 41.2972 -94.7128 72° East 286 329 16,200 -1,169 Descending Minneapolis Center
Thu 01:53:32 PM 41.3122 -94.6767 61° Northeast 287 330 15,900 -968 Descending Minneapolis Center
Thu 01:54:19 PM 41.3186 -94.6139 82° East 283 326 15,200 -1,000 Descending Minneapolis Center
Thu 01:54:38 PM 41.3342 -94.5642 67° East 278 320 14,800 -1,161 Descending Minneapolis Center
Thu 01:55:21 PM 41.3381 -94.5025 85° East 274 315 14,000 -1,180 Descending Minneapolis Center
Thu 01:55:39 PM 41.3486 -94.4633 70° East 272 313 13,600 -1,355 Descending Minneapolis Center
Thu 01:56:23 PM 41.3489 -94.4022 90° East 273 314 12,600 -1,475 Descending Minneapolis Center
Thu 01:56:40 PM 41.3583 -94.3628 72° East 275 316 12,100 -1,377 Descending Minneapolis Center
Thu 01:57:24 PM 41.3603 -94.3047 87° East 268 308 11,200 -1,300 Descending Minneapolis Center
Thu 01:57:40 PM 41.3706 -94.2647 71° East 269 310 10,800 -1,355 Descending Minneapolis Center
Thu 01:58:26 PM 41.3725 -94.2014 88° East 262 302 9,800 -1,180 Descending Minneapolis Center
Thu 01:58:41 PM 41.3808 -94.1725 69° East 262 302 9,600 -871 Descending Minneapolis Center
Thu 01:59:28 PM 41.3636 -94.1100 110° East 259 298 8,900 -896 Descending Minneapolis Center
Thu 01:59:48 PM 41.3592 -94.0689 98° East 254 292 8,600 -871 Descending Minneapolis Center
Thu 02:00:30 PM 41.3389 -94.0172 118° Southeast 250 288 8,000 -808 Descending Minneapolis Center
Thu 02:01:32 PM 41.3575 -93.9328 74° East 239 275 7,200 -823 Descending Minneapolis Center
Thu 02:02:34 PM 41.3769 -93.8425 74° East 237 273 6,300 -1,045 Descending Minneapolis Center
Thu 02:03:44 PM 41.4114 -93.7397 66° East 242 278 4,900 -1,191 Descending Minneapolis Center
Thu 02:04:45 PM 41.4408 -93.6647 62° Northeast 226 260 3,700 -885 Descending Minneapolis Center
Thu 02:05:46 PM 41.4708 -93.6008 58° Northeast 204 235 3,100 -609 Descending Minneapolis Center
Thu 02:06:53 PM 41.4997 -93.6064 352° North 124 143 2,400 -698 Descending Minneapolis Center
Thu 02:07:55 PM 41.5175 -93.6336 311° West 100 115 1,600 -677 Descending Minneapolis Center
Thu 02:08:57 PM 41.5353 -93.6586 314° West 93 107 1,000 -581 Descending Minneapolis Center

Login

Don't have an account? Register now (free) for customized features, flight alerts, and more!